SWA1100 KBWI-KSRQ
Flight info
| Callsign | SWA1100 |
|---|---|
| Flight time | 1h 58m |
| Altitude | 36000 |
| Route | TERPZ8 RRSIN GSO Q75 SLOJO Q103 PUPYY KYYUU LUBBR4 |
| Aircraft | B737/M-SDE2E3FGHIRWXY/LB1 |
Departure
| Time | 2026-05-06 16:15 |
|---|---|
| Airport | Baltimore/Washington International Thurgood Marshall Airport (KBWI) |
Arrival
| Time | 2026-05-06 18:14 |
|---|---|
| Airport | Sarasota Bradenton International Airport (KSRQ) |
| Time | Latitude | Longitude | Altitude | Speed | Heading |
|---|---|---|---|---|---|
| 2026-05-06 15:59 | 39.18001 | -76.67325 | 143 ft | 0 kts | 57° |
| 2026-05-06 16:05 | 39.17992 | -76.67341 | 144 ft | 2 kts | 54° |
| 2026-05-06 16:06 | 39.17983 | -76.67358 | 144 ft | 2 kts | 55° |
| 2026-05-06 16:06 | 39.17981 | -76.67378 | 144 ft | 2 kts | 125° |
| 2026-05-06 16:06 | 39.17988 | -76.67388 | 144 ft | 0 kts | 140° |
| 2026-05-06 16:08 | 39.17988 | -76.67387 | 144 ft | 0 kts | 141° |
| 2026-05-06 16:08 | 39.17975 | -76.67380 | 143 ft | 5 kts | 155° |
| 2026-05-06 16:09 | 39.17928 | -76.67350 | 143 ft | 10 kts | 147° |
| 2026-05-06 16:09 | 39.17862 | -76.67287 | 144 ft | 12 kts | 144° |
| 2026-05-06 16:09 | 39.17793 | -76.67229 | 145 ft | 12 kts | 146° |
| 2026-05-06 16:09 | 39.17728 | -76.67170 | 146 ft | 11 kts | 146° |
| 2026-05-06 16:10 | 39.17663 | -76.67111 | 147 ft | 11 kts | 141° |
| 2026-05-06 16:10 | 39.17603 | -76.67052 | 149 ft | 11 kts | 143° |
| 2026-05-06 16:10 | 39.17553 | -76.66985 | 149 ft | 10 kts | 119° |
| 2026-05-06 16:10 | 39.17532 | -76.66901 | 148 ft | 10 kts | 115° |
| 2026-05-06 16:11 | 39.17488 | -76.66835 | 148 ft | 10 kts | 136° |
| 2026-05-06 16:11 | 39.17455 | -76.66760 | 148 ft | 10 kts | 100° |
| 2026-05-06 16:11 | 39.17452 | -76.66671 | 148 ft | 10 kts | 91° |
| 2026-05-06 16:11 | 39.17451 | -76.66566 | 146 ft | 13 kts | 91° |
| 2026-05-06 16:12 | 39.17492 | -76.66458 | 143 ft | 15 kts | 39° |
| 2026-05-06 16:12 | 39.17509 | -76.66341 | 143 ft | 15 kts | 123° |
| 2026-05-06 16:12 | 39.17462 | -76.66226 | 144 ft | 14 kts | 105° |
| 2026-05-06 16:12 | 39.17453 | -76.66103 | 144 ft | 14 kts | 94° |
| 2026-05-06 16:13 | 39.17445 | -76.65976 | 144 ft | 14 kts | 94° |
| 2026-05-06 16:13 | 39.17436 | -76.65851 | 145 ft | 14 kts | 97° |
| 2026-05-06 16:13 | 39.17422 | -76.65733 | 149 ft | 13 kts | 98° |
| 2026-05-06 16:13 | 39.17418 | -76.65617 | 151 ft | 13 kts | 91° |
| 2026-05-06 16:14 | 39.17382 | -76.65526 | 152 ft | 12 kts | 155° |
| 2026-05-06 16:14 | 39.17304 | -76.65553 | 152 ft | 12 kts | 229° |
| 2026-05-06 16:14 | 39.17287 | -76.65663 | 149 ft | 22 kts | 272° |
| 2026-05-06 16:14 | 39.17318 | -76.66314 | 143 ft | 121 kts | 275° |
| 2026-05-06 16:15 | 39.17382 | -76.67679 | 480 ft | 174 kts | 272° |
| 2026-05-06 16:15 | 39.17529 | -76.69287 | 1713 ft | 175 kts | 271° |
| 2026-05-06 16:15 | 39.17644 | -76.70757 | 3191 ft | 170 kts | 267° |
| 2026-05-06 16:15 | 39.17706 | -76.72417 | 3712 ft | 201 kts | 268° |
| 2026-05-06 16:16 | 39.17783 | -76.74287 | 4341 ft | 212 kts | 269° |
| 2026-05-06 16:16 | 39.17917 | -76.76273 | 4866 ft | 236 kts | 276° |
| 2026-05-06 16:16 | 39.18298 | -76.78396 | 5722 ft | 245 kts | 280° |
| 2026-05-06 16:16 | 39.18737 | -76.80534 | 6703 ft | 248 kts | 280° |
| 2026-05-06 16:17 | 39.19179 | -76.82682 | 7670 ft | 251 kts | 280° |
| 2026-05-06 16:17 | 39.19623 | -76.84874 | 8588 ft | 254 kts | 279° |
| 2026-05-06 16:17 | 39.20067 | -76.87101 | 9481 ft | 257 kts | 279° |
| 2026-05-06 16:17 | 39.20509 | -76.89351 | 10314 ft | 261 kts | 279° |
| 2026-05-06 16:18 | 39.20964 | -76.91701 | 10611 ft | 286 kts | 279° |
| 2026-05-06 16:18 | 39.21467 | -76.94318 | 10807 ft | 312 kts | 279° |
| 2026-05-06 16:18 | 39.21973 | -76.97114 | 11233 ft | 325 kts | 275° |
| 2026-05-06 16:18 | 39.22098 | -77.00038 | 11947 ft | 327 kts | 268° |
| 2026-05-06 16:19 | 39.22110 | -77.02944 | 12744 ft | 330 kts | 268° |
| 2026-05-06 16:19 | 39.22134 | -77.05930 | 13528 ft | 334 kts | 268° |
| 2026-05-06 16:19 | 39.22156 | -77.08942 | 14259 ft | 336 kts | 265° |
| 2026-05-06 16:19 | 39.21662 | -77.11885 | 15017 ft | 338 kts | 248° |
| 2026-05-06 16:20 | 39.20527 | -77.14550 | 15834 ft | 342 kts | 237° |
| 2026-05-06 16:20 | 39.18875 | -77.16759 | 16519 ft | 353 kts | 221° |
| 2026-05-06 16:20 | 39.16809 | -77.18557 | 17240 ft | 360 kts | 217° |
| 2026-05-06 16:20 | 39.14658 | -77.20276 | 17915 ft | 366 kts | 217° |
| 2026-05-06 16:21 | 39.12478 | -77.22029 | 18527 ft | 370 kts | 218° |
| 2026-05-06 16:21 | 39.10324 | -77.23793 | 19158 ft | 372 kts | 218° |
| 2026-05-06 16:21 | 39.08114 | -77.25578 | 19813 ft | 376 kts | 216° |
| 2026-05-06 16:21 | 39.05817 | -77.27249 | 20438 ft | 380 kts | 214° |
| 2026-05-06 16:22 | 39.03479 | -77.28865 | 21010 ft | 384 kts | 214° |
| 2026-05-06 16:22 | 39.01905 | -77.29941 | 21383 ft | 387 kts | 214° |
| 2026-05-06 16:22 | 38.98719 | -77.32124 | 22100 ft | 392 kts | 214° |
| 2026-05-06 16:22 | 38.97107 | -77.33235 | 22457 ft | 395 kts | 214° |
| 2026-05-06 16:23 | 38.94655 | -77.34935 | 22984 ft | 399 kts | 214° |
| 2026-05-06 16:23 | 38.92200 | -77.36642 | 23505 ft | 402 kts | 214° |
| 2026-05-06 16:23 | 38.89756 | -77.38345 | 23949 ft | 405 kts | 214° |
| 2026-05-06 16:23 | 38.87260 | -77.40085 | 24392 ft | 408 kts | 214° |
| 2026-05-06 16:24 | 38.84776 | -77.41816 | 24821 ft | 411 kts | 214° |
| 2026-05-06 16:24 | 38.82236 | -77.43584 | 25255 ft | 415 kts | 214° |
| 2026-05-06 16:24 | 38.79713 | -77.45340 | 25662 ft | 418 kts | 214° |
| 2026-05-06 16:24 | 38.77140 | -77.47128 | 26079 ft | 420 kts | 214° |
| 2026-05-06 16:25 | 38.74548 | -77.48928 | 26491 ft | 423 kts | 214° |
| 2026-05-06 16:25 | 38.71838 | -77.50532 | 26826 ft | 436 kts | 205° |
| 2026-05-06 16:25 | 38.68925 | -77.51614 | 27197 ft | 442 kts | 202° |
| 2026-05-06 16:25 | 38.65914 | -77.52620 | 27545 ft | 446 kts | 201° |
| 2026-05-06 16:26 | 38.62931 | -77.53597 | 27880 ft | 449 kts | 201° |
| 2026-05-06 16:26 | 38.59880 | -77.54612 | 28198 ft | 453 kts | 202° |
| 2026-05-06 16:26 | 38.56822 | -77.55651 | 28546 ft | 455 kts | 202° |
| 2026-05-06 16:26 | 38.53746 | -77.56714 | 28887 ft | 458 kts | 202° |
| 2026-05-06 16:27 | 38.50690 | -77.57779 | 29281 ft | 459 kts | 202° |
| 2026-05-06 16:27 | 38.47599 | -77.58858 | 29808 ft | 458 kts | 202° |
| 2026-05-06 16:27 | 38.44548 | -77.59922 | 30325 ft | 456 kts | 203° |
| 2026-05-06 16:27 | 38.41507 | -77.60982 | 30768 ft | 455 kts | 203° |
| 2026-05-06 16:28 | 38.38431 | -77.62056 | 31149 ft | 455 kts | 203° |
| 2026-05-06 16:28 | 38.35402 | -77.63111 | 31533 ft | 455 kts | 204° |
| 2026-05-06 16:28 | 38.32335 | -77.64177 | 31951 ft | 454 kts | 204° |
| 2026-05-06 16:28 | 38.29447 | -77.65642 | 32285 ft | 437 kts | 219° |
| 2026-05-06 16:29 | 38.27059 | -77.67899 | 32709 ft | 424 kts | 228° |
| 2026-05-06 16:29 | 38.24819 | -77.70341 | 33137 ft | 422 kts | 229° |
| 2026-05-06 16:29 | 38.22629 | -77.72763 | 33518 ft | 421 kts | 230° |
| 2026-05-06 16:29 | 38.20406 | -77.75207 | 33922 ft | 419 kts | 230° |
| 2026-05-06 16:30 | 38.18188 | -77.77618 | 34295 ft | 418 kts | 229° |
| 2026-05-06 16:30 | 38.16716 | -77.79205 | 34510 ft | 418 kts | 229° |
| 2026-05-06 16:30 | 38.13763 | -77.82370 | 34942 ft | 416 kts | 229° |
| 2026-05-06 16:30 | 38.11539 | -77.84743 | 35302 ft | 414 kts | 229° |
| 2026-05-06 16:31 | 38.09351 | -77.87077 | 35625 ft | 413 kts | 229° |
| 2026-05-06 16:31 | 38.07146 | -77.89429 | 35876 ft | 414 kts | 229° |
| 2026-05-06 16:31 | 38.02739 | -77.94122 | 35942 ft | 414 kts | 229° |
| 2026-05-06 16:32 | 37.98310 | -77.98824 | 35951 ft | 413 kts | 229° |
| 2026-05-06 16:32 | 37.93906 | -78.03496 | 35940 ft | 413 kts | 229° |
| 2026-05-06 16:33 | 37.89520 | -78.08144 | 35941 ft | 413 kts | 229° |
| 2026-05-06 16:34 | 37.82888 | -78.15157 | 35942 ft | 414 kts | 229° |
| 2026-05-06 16:34 | 37.78480 | -78.19810 | 35939 ft | 415 kts | 229° |
| 2026-05-06 16:35 | 37.74018 | -78.24513 | 35932 ft | 417 kts | 229° |
| 2026-05-06 16:35 | 37.69564 | -78.29199 | 35920 ft | 418 kts | 229° |
| 2026-05-06 16:36 | 37.65101 | -78.33885 | 35936 ft | 419 kts | 229° |
| 2026-05-06 16:36 | 37.60611 | -78.38592 | 35941 ft | 420 kts | 229° |
| 2026-05-06 16:37 | 37.56096 | -78.43319 | 35953 ft | 421 kts | 229° |
| 2026-05-06 16:37 | 37.51586 | -78.48036 | 35952 ft | 422 kts | 229° |
| 2026-05-06 16:38 | 37.47073 | -78.52745 | 35964 ft | 423 kts | 229° |
| 2026-05-06 16:38 | 37.42513 | -78.57469 | 35960 ft | 424 kts | 228° |
| 2026-05-06 16:39 | 37.37949 | -78.62168 | 35960 ft | 426 kts | 228° |
| 2026-05-06 16:39 | 37.33363 | -78.66887 | 35946 ft | 427 kts | 228° |
| 2026-05-06 16:40 | 37.28750 | -78.71628 | 35956 ft | 428 kts | 228° |
| 2026-05-06 16:40 | 37.24147 | -78.76354 | 35944 ft | 429 kts | 228° |
| 2026-05-06 16:41 | 37.19535 | -78.81080 | 35943 ft | 430 kts | 228° |
| 2026-05-06 16:41 | 37.14903 | -78.85820 | 35944 ft | 431 kts | 228° |
| 2026-05-06 16:42 | 37.10257 | -78.90567 | 35955 ft | 432 kts | 228° |
| 2026-05-06 16:42 | 37.05588 | -78.95330 | 35948 ft | 434 kts | 228° |
| 2026-05-06 16:43 | 37.00897 | -79.00106 | 35955 ft | 435 kts | 228° |
| 2026-05-06 16:43 | 36.96207 | -79.04875 | 35941 ft | 436 kts | 228° |
| 2026-05-06 16:44 | 36.91510 | -79.09668 | 35954 ft | 436 kts | 228° |
| 2026-05-06 16:44 | 36.86826 | -79.14478 | 35954 ft | 436 kts | 229° |
| 2026-05-06 16:45 | 36.82115 | -79.19310 | 35975 ft | 436 kts | 229° |
| 2026-05-06 16:45 | 36.77423 | -79.24111 | 35976 ft | 437 kts | 229° |
| 2026-05-06 16:46 | 36.72730 | -79.28901 | 36002 ft | 437 kts | 229° |
| 2026-05-06 16:46 | 36.68033 | -79.33689 | 35999 ft | 437 kts | 229° |
| 2026-05-06 16:47 | 36.63301 | -79.38504 | 36008 ft | 437 kts | 229° |
| 2026-05-06 16:47 | 36.58597 | -79.43283 | 36011 ft | 438 kts | 229° |
| 2026-05-06 16:48 | 36.53871 | -79.48077 | 36007 ft | 438 kts | 229° |
| 2026-05-06 16:48 | 36.49141 | -79.52867 | 35998 ft | 439 kts | 229° |
| 2026-05-06 16:49 | 36.44413 | -79.57648 | 36002 ft | 440 kts | 229° |
| 2026-05-06 16:49 | 36.39665 | -79.62440 | 35999 ft | 441 kts | 229° |
| 2026-05-06 16:50 | 36.34879 | -79.67263 | 36015 ft | 441 kts | 229° |
| 2026-05-06 16:50 | 36.30108 | -79.72063 | 36007 ft | 442 kts | 229° |
| 2026-05-06 16:51 | 36.25347 | -79.76845 | 36007 ft | 443 kts | 229° |
| 2026-05-06 16:51 | 36.20561 | -79.81645 | 36005 ft | 443 kts | 229° |
| 2026-05-06 16:52 | 36.15752 | -79.86459 | 36021 ft | 443 kts | 229° |
| 2026-05-06 16:52 | 36.10971 | -79.91242 | 36013 ft | 444 kts | 229° |
| 2026-05-06 16:53 | 36.06140 | -79.96041 | 36025 ft | 446 kts | 226° |
| 2026-05-06 16:53 | 36.03527 | -79.98137 | 36012 ft | 458 kts | 218° |
| 2026-05-06 16:53 | 36.00576 | -79.99791 | 36023 ft | 466 kts | 212° |
| 2026-05-06 16:54 | 35.94531 | -80.02717 | 36004 ft | 469 kts | 211° |
| 2026-05-06 16:54 | 35.88445 | -80.05621 | 35998 ft | 469 kts | 211° |
| 2026-05-06 16:55 | 35.82372 | -80.08574 | 36014 ft | 469 kts | 211° |
| 2026-05-06 16:55 | 35.76287 | -80.11565 | 36011 ft | 469 kts | 211° |
| 2026-05-06 16:56 | 35.70244 | -80.14540 | 36019 ft | 470 kts | 212° |
| 2026-05-06 16:56 | 35.64150 | -80.17532 | 36018 ft | 470 kts | 211° |
| 2026-05-06 16:57 | 35.58075 | -80.20510 | 36046 ft | 471 kts | 212° |
| 2026-05-06 16:57 | 35.51972 | -80.23494 | 36065 ft | 472 kts | 212° |
| 2026-05-06 16:58 | 35.45873 | -80.26472 | 36074 ft | 473 kts | 212° |
| 2026-05-06 16:58 | 35.39767 | -80.29448 | 36059 ft | 474 kts | 212° |
| 2026-05-06 16:59 | 35.33614 | -80.32442 | 36060 ft | 474 kts | 212° |
| 2026-05-06 16:59 | 35.27479 | -80.35424 | 36046 ft | 476 kts | 212° |
| 2026-05-06 17:00 | 35.21310 | -80.38417 | 36039 ft | 478 kts | 212° |
| 2026-05-06 17:00 | 35.15110 | -80.41422 | 36016 ft | 481 kts | 211° |
| 2026-05-06 17:01 | 35.08900 | -80.44421 | 36044 ft | 480 kts | 211° |
| 2026-05-06 17:01 | 35.02720 | -80.47400 | 36039 ft | 478 kts | 212° |
| 2026-05-06 17:02 | 34.96530 | -80.50382 | 36047 ft | 476 kts | 212° |
| 2026-05-06 17:02 | 34.90414 | -80.53325 | 36044 ft | 474 kts | 212° |
| 2026-05-06 17:03 | 34.84232 | -80.56297 | 36031 ft | 474 kts | 212° |
| 2026-05-06 17:03 | 34.78120 | -80.59229 | 36042 ft | 474 kts | 212° |
| 2026-05-06 17:04 | 34.71990 | -80.62166 | 36042 ft | 474 kts | 212° |
| 2026-05-06 17:04 | 34.65849 | -80.65103 | 36052 ft | 476 kts | 212° |
| 2026-05-06 17:05 | 34.59515 | -80.67743 | 36049 ft | 484 kts | 207° |
| 2026-05-06 17:05 | 34.53050 | -80.70084 | 36039 ft | 487 kts | 206° |
| 2026-05-06 17:06 | 34.47622 | -80.72049 | 36041 ft | 487 kts | 207° |
| 2026-05-06 17:06 | 34.41140 | -80.74442 | 36051 ft | 487 kts | 207° |
| 2026-05-06 17:07 | 34.34657 | -80.76855 | 36058 ft | 487 kts | 207° |
| 2026-05-06 17:07 | 34.28198 | -80.79256 | 36065 ft | 487 kts | 207° |
| 2026-05-06 17:08 | 34.21687 | -80.81669 | 36042 ft | 487 kts | 207° |
| 2026-05-06 17:08 | 34.15219 | -80.84061 | 36052 ft | 487 kts | 207° |
| 2026-05-06 17:09 | 34.08749 | -80.86440 | 36056 ft | 486 kts | 207° |
| 2026-05-06 17:09 | 34.02298 | -80.88804 | 36071 ft | 485 kts | 207° |
| 2026-05-06 17:10 | 33.95831 | -80.91174 | 36071 ft | 484 kts | 207° |
| 2026-05-06 17:10 | 33.89428 | -80.93517 | 36071 ft | 483 kts | 207° |
| 2026-05-06 17:11 | 33.82991 | -80.95870 | 36059 ft | 482 kts | 207° |
| 2026-05-06 17:11 | 33.76591 | -80.98205 | 36058 ft | 481 kts | 207° |
| 2026-05-06 17:12 | 33.70193 | -81.00536 | 36057 ft | 481 kts | 207° |
| 2026-05-06 17:12 | 33.63803 | -81.02860 | 36066 ft | 480 kts | 207° |
| 2026-05-06 17:13 | 33.57419 | -81.05179 | 36058 ft | 480 kts | 207° |
| 2026-05-06 17:13 | 33.51018 | -81.07500 | 36066 ft | 479 kts | 207° |
| 2026-05-06 17:14 | 33.44647 | -81.09808 | 36053 ft | 479 kts | 208° |
| 2026-05-06 17:14 | 33.38241 | -81.12123 | 36058 ft | 479 kts | 208° |
| 2026-05-06 17:15 | 33.31861 | -81.14427 | 36067 ft | 479 kts | 208° |
| 2026-05-06 17:15 | 33.25519 | -81.16715 | 36075 ft | 479 kts | 208° |
| 2026-05-06 17:16 | 33.19127 | -81.19017 | 36076 ft | 479 kts | 208° |
| 2026-05-06 17:16 | 33.12738 | -81.21315 | 36076 ft | 479 kts | 208° |
| 2026-05-06 17:17 | 33.06358 | -81.23606 | 36073 ft | 479 kts | 208° |
| 2026-05-06 17:17 | 32.99944 | -81.25906 | 36075 ft | 479 kts | 208° |
| 2026-05-06 17:18 | 32.93588 | -81.28181 | 36073 ft | 479 kts | 208° |
| 2026-05-06 17:18 | 32.87214 | -81.30459 | 36073 ft | 479 kts | 208° |
| 2026-05-06 17:19 | 32.80807 | -81.32747 | 36065 ft | 479 kts | 208° |
| 2026-05-06 17:19 | 32.74440 | -81.35016 | 36073 ft | 478 kts | 208° |
| 2026-05-06 17:20 | 32.68074 | -81.37282 | 36070 ft | 478 kts | 208° |
| 2026-05-06 17:20 | 32.61684 | -81.39553 | 36077 ft | 478 kts | 208° |
| 2026-05-06 17:21 | 32.55339 | -81.41802 | 36073 ft | 478 kts | 208° |
| 2026-05-06 17:21 | 32.48960 | -81.44059 | 36078 ft | 478 kts | 208° |
| 2026-05-06 17:22 | 32.42613 | -81.46303 | 36061 ft | 477 kts | 208° |
| 2026-05-06 17:22 | 32.36254 | -81.48548 | 36066 ft | 477 kts | 208° |
| 2026-05-06 17:23 | 32.29913 | -81.50785 | 36064 ft | 476 kts | 208° |
| 2026-05-06 17:23 | 32.23527 | -81.53033 | 36076 ft | 476 kts | 208° |
| 2026-05-06 17:24 | 32.17180 | -81.55264 | 36074 ft | 476 kts | 208° |
| 2026-05-06 17:24 | 32.10846 | -81.57488 | 36078 ft | 475 kts | 208° |
| 2026-05-06 17:25 | 32.04528 | -81.59703 | 36078 ft | 475 kts | 208° |
| 2026-05-06 17:25 | 31.98162 | -81.61931 | 36084 ft | 475 kts | 208° |
| 2026-05-06 17:26 | 31.91859 | -81.64134 | 36081 ft | 474 kts | 208° |
| 2026-05-06 17:26 | 31.85522 | -81.66345 | 36083 ft | 474 kts | 208° |
| 2026-05-06 17:27 | 31.79200 | -81.68549 | 36077 ft | 473 kts | 208° |
| 2026-05-06 17:27 | 31.72891 | -81.70745 | 36079 ft | 473 kts | 208° |
| 2026-05-06 17:28 | 31.66601 | -81.72931 | 36102 ft | 472 kts | 208° |
| 2026-05-06 17:28 | 31.60312 | -81.75114 | 36105 ft | 472 kts | 208° |
| 2026-05-06 17:29 | 31.53992 | -81.77305 | 36109 ft | 472 kts | 208° |
| 2026-05-06 17:29 | 31.47718 | -81.79477 | 36112 ft | 471 kts | 208° |
| 2026-05-06 17:30 | 31.41429 | -81.81656 | 36103 ft | 470 kts | 208° |
| 2026-05-06 17:30 | 31.35413 | -81.84386 | 36099 ft | 460 kts | 215° |
| 2026-05-06 17:31 | 31.29570 | -81.87382 | 36080 ft | 459 kts | 215° |
| 2026-05-06 17:31 | 31.23699 | -81.90365 | 36076 ft | 459 kts | 214° |
| 2026-05-06 17:32 | 31.17834 | -81.93288 | 36072 ft | 460 kts | 214° |
| 2026-05-06 17:32 | 31.11934 | -81.96201 | 36074 ft | 459 kts | 214° |
| 2026-05-06 17:33 | 31.06051 | -81.99101 | 36073 ft | 459 kts | 214° |
| 2026-05-06 17:33 | 31.00181 | -82.01993 | 36085 ft | 459 kts | 214° |
| 2026-05-06 17:34 | 30.94280 | -82.04897 | 36095 ft | 458 kts | 214° |
| 2026-05-06 17:34 | 30.88430 | -82.07773 | 36131 ft | 458 kts | 214° |
| 2026-05-06 17:35 | 30.82553 | -82.10658 | 36151 ft | 457 kts | 214° |
| 2026-05-06 17:35 | 30.76702 | -82.13527 | 36171 ft | 457 kts | 213° |
| 2026-05-06 17:36 | 30.70836 | -82.16399 | 36049 ft | 453 kts | 212° |
| 2026-05-06 17:36 | 30.67980 | -82.17792 | 36111 ft | 446 kts | 213° |
| 2026-05-06 17:36 | 30.62127 | -82.20229 | 36179 ft | 462 kts | 198° |
| 2026-05-06 17:37 | 30.55643 | -82.20981 | 36213 ft | 469 kts | 194° |
| 2026-05-06 17:37 | 30.49139 | -82.21580 | 36213 ft | 471 kts | 194° |
| 2026-05-06 17:38 | 30.42627 | -82.22265 | 36214 ft | 471 kts | 195° |
| 2026-05-06 17:38 | 30.36104 | -82.23002 | 36196 ft | 472 kts | 195° |
| 2026-05-06 17:39 | 30.29540 | -82.23748 | 36181 ft | 472 kts | 195° |
| 2026-05-06 17:39 | 30.23017 | -82.24484 | 36166 ft | 472 kts | 195° |
| 2026-05-06 17:40 | 30.16458 | -82.25217 | 36153 ft | 473 kts | 193° |
| 2026-05-06 17:40 | 30.13159 | -82.25213 | 36152 ft | 484 kts | 184° |
| 2026-05-06 17:40 | 30.09778 | -82.24818 | 36154 ft | 487 kts | 181° |
| 2026-05-06 17:41 | 30.03077 | -82.23783 | 36161 ft | 488 kts | 180° |
| 2026-05-06 17:41 | 29.96322 | -82.22792 | 36136 ft | 486 kts | 181° |
| 2026-05-06 17:42 | 29.89638 | -82.21912 | 36131 ft | 485 kts | 182° |
| 2026-05-06 17:42 | 29.82899 | -82.21055 | 36129 ft | 485 kts | 182° |
| 2026-05-06 17:43 | 29.76209 | -82.20201 | 36128 ft | 485 kts | 181° |
| 2026-05-06 17:43 | 29.69479 | -82.19338 | 36127 ft | 485 kts | 181° |
| 2026-05-06 17:44 | 29.62782 | -82.18479 | 36130 ft | 484 kts | 181° |
| 2026-05-06 17:44 | 29.56151 | -82.17629 | 35806 ft | 476 kts | 181° |
| 2026-05-06 17:45 | 29.52856 | -82.17212 | 35168 ft | 476 kts | 181° |
| 2026-05-06 17:45 | 29.49542 | -82.16798 | 34359 ft | 480 kts | 181° |
| 2026-05-06 17:45 | 29.46217 | -82.16386 | 33422 ft | 486 kts | 181° |
| 2026-05-06 17:45 | 29.42826 | -82.15964 | 32493 ft | 489 kts | 181° |
| 2026-05-06 17:46 | 29.39419 | -82.15536 | 31616 ft | 492 kts | 180° |
| 2026-05-06 17:46 | 29.36058 | -82.15111 | 30978 ft | 489 kts | 180° |
| 2026-05-06 17:46 | 29.32691 | -82.14682 | 30490 ft | 482 kts | 180° |
| 2026-05-06 17:46 | 29.29404 | -82.14265 | 29957 ft | 476 kts | 180° |
| 2026-05-06 17:47 | 29.26126 | -82.13853 | 29337 ft | 471 kts | 180° |
| 2026-05-06 17:47 | 29.22869 | -82.13446 | 28680 ft | 466 kts | 180° |
| 2026-05-06 17:47 | 29.19651 | -82.13044 | 28043 ft | 462 kts | 180° |
| 2026-05-06 17:47 | 29.16459 | -82.12666 | 27431 ft | 456 kts | 181° |
| 2026-05-06 17:48 | 29.13355 | -82.12484 | 26841 ft | 449 kts | 184° |
| 2026-05-06 17:48 | 29.10231 | -82.12429 | 26259 ft | 444 kts | 185° |
| 2026-05-06 17:48 | 29.08189 | -82.12419 | 25875 ft | 441 kts | 186° |
| 2026-05-06 17:48 | 29.05120 | -82.12409 | 25292 ft | 438 kts | 185° |
| 2026-05-06 17:49 | 29.01086 | -82.12374 | 24546 ft | 433 kts | 185° |
| 2026-05-06 17:49 | 28.99045 | -82.12345 | 24178 ft | 431 kts | 184° |
| 2026-05-06 17:49 | 28.96081 | -82.12293 | 23629 ft | 428 kts | 184° |
| 2026-05-06 17:49 | 28.93130 | -82.12234 | 23004 ft | 424 kts | 184° |
| 2026-05-06 17:50 | 28.90175 | -82.12171 | 22408 ft | 420 kts | 184° |
| 2026-05-06 17:50 | 28.87260 | -82.12109 | 21827 ft | 416 kts | 184° |
| 2026-05-06 17:50 | 28.84369 | -82.12048 | 21256 ft | 413 kts | 183° |
| 2026-05-06 17:50 | 28.81498 | -82.11988 | 20676 ft | 409 kts | 183° |
| 2026-05-06 17:51 | 28.78652 | -82.11929 | 20116 ft | 406 kts | 183° |
| 2026-05-06 17:51 | 28.75871 | -82.11871 | 19586 ft | 403 kts | 182° |
| 2026-05-06 17:51 | 28.73065 | -82.11813 | 19051 ft | 399 kts | 182° |
| 2026-05-06 17:51 | 28.70282 | -82.11755 | 18524 ft | 397 kts | 182° |
| 2026-05-06 17:52 | 28.67566 | -82.11686 | 17970 ft | 394 kts | 180° |
| 2026-05-06 17:52 | 28.64840 | -82.11405 | 17400 ft | 392 kts | 175° |
| 2026-05-06 17:52 | 28.62140 | -82.10989 | 16868 ft | 389 kts | 174° |
| 2026-05-06 17:52 | 28.59461 | -82.10551 | 16329 ft | 385 kts | 174° |
| 2026-05-06 17:53 | 28.56845 | -82.10137 | 15811 ft | 382 kts | 174° |
| 2026-05-06 17:53 | 28.54211 | -82.09745 | 15305 ft | 378 kts | 174° |
| 2026-05-06 17:53 | 28.51606 | -82.09370 | 14792 ft | 375 kts | 174° |
| 2026-05-06 17:53 | 28.49045 | -82.09005 | 14362 ft | 371 kts | 173° |
| 2026-05-06 17:54 | 28.46512 | -82.08512 | 14126 ft | 366 kts | 169° |
| 2026-05-06 17:54 | 28.44024 | -82.07866 | 13903 ft | 364 kts | 167° |
| 2026-05-06 17:54 | 28.41567 | -82.07190 | 13674 ft | 367 kts | 167° |
| 2026-05-06 17:54 | 28.39054 | -82.06508 | 13440 ft | 369 kts | 167° |
| 2026-05-06 17:55 | 28.36571 | -82.05852 | 13205 ft | 368 kts | 167° |
| 2026-05-06 17:55 | 28.34070 | -82.05206 | 13053 ft | 368 kts | 167° |
| 2026-05-06 17:55 | 28.31603 | -82.04576 | 12996 ft | 363 kts | 167° |
| 2026-05-06 17:55 | 28.29166 | -82.03971 | 12990 ft | 348 kts | 169° |
| 2026-05-06 17:56 | 28.26849 | -82.03567 | 12968 ft | 331 kts | 173° |
| 2026-05-06 17:56 | 28.24563 | -82.03249 | 12434 ft | 331 kts | 173° |
| 2026-05-06 17:56 | 28.22250 | -82.02939 | 11925 ft | 336 kts | 173° |
| 2026-05-06 17:56 | 28.19913 | -82.02611 | 11744 ft | 343 kts | 173° |
| 2026-05-06 17:57 | 28.17494 | -82.02256 | 11544 ft | 351 kts | 173° |
| 2026-05-06 17:57 | 28.15080 | -82.01896 | 11325 ft | 356 kts | 172° |
| 2026-05-06 17:57 | 28.12596 | -82.01694 | 11082 ft | 355 kts | 185° |
| 2026-05-06 17:57 | 28.10241 | -82.02374 | 10810 ft | 351 kts | 205° |
| 2026-05-06 17:58 | 28.08109 | -82.03608 | 10531 ft | 334 kts | 209° |
| 2026-05-06 17:58 | 28.06110 | -82.04854 | 10234 ft | 319 kts | 210° |
| 2026-05-06 17:58 | 28.04212 | -82.06051 | 9944 ft | 310 kts | 210° |
| 2026-05-06 17:58 | 28.02338 | -82.07226 | 9646 ft | 304 kts | 210° |
| 2026-05-06 17:59 | 28.00487 | -82.08377 | 9343 ft | 300 kts | 209° |
| 2026-05-06 17:59 | 27.98685 | -82.09490 | 9058 ft | 297 kts | 209° |
| 2026-05-06 17:59 | 27.96864 | -82.10610 | 8764 ft | 296 kts | 208° |
| 2026-05-06 17:59 | 27.95065 | -82.11712 | 8464 ft | 294 kts | 208° |
| 2026-05-06 18:00 | 27.93254 | -82.12819 | 8188 ft | 293 kts | 208° |
| 2026-05-06 18:00 | 27.91476 | -82.13905 | 7898 ft | 293 kts | 208° |
| 2026-05-06 18:00 | 27.89666 | -82.15006 | 7616 ft | 294 kts | 208° |
| 2026-05-06 18:00 | 27.87879 | -82.16096 | 7329 ft | 294 kts | 208° |
| 2026-05-06 18:01 | 27.86075 | -82.17194 | 7024 ft | 292 kts | 207° |
| 2026-05-06 18:01 | 27.84284 | -82.18285 | 6762 ft | 291 kts | 208° |
| 2026-05-06 18:01 | 27.82500 | -82.19373 | 6488 ft | 290 kts | 207° |
| 2026-05-06 18:01 | 27.80743 | -82.20440 | 6189 ft | 290 kts | 207° |
| 2026-05-06 18:02 | 27.78959 | -82.21515 | 5910 ft | 289 kts | 207° |
| 2026-05-06 18:02 | 27.77195 | -82.22609 | 5576 ft | 286 kts | 211° |
| 2026-05-06 18:02 | 27.75638 | -82.23946 | 5287 ft | 282 kts | 220° |
| 2026-05-06 18:02 | 27.74177 | -82.25414 | 5055 ft | 280 kts | 220° |
| 2026-05-06 18:03 | 27.72744 | -82.26887 | 4987 ft | 280 kts | 221° |
| 2026-05-06 18:03 | 27.71299 | -82.28360 | 5004 ft | 277 kts | 221° |
| 2026-05-06 18:03 | 27.69851 | -82.29816 | 4969 ft | 279 kts | 220° |
| 2026-05-06 18:03 | 27.68404 | -82.31253 | 4983 ft | 280 kts | 220° |
| 2026-05-06 18:04 | 27.66930 | -82.32713 | 4992 ft | 281 kts | 220° |
| 2026-05-06 18:04 | 27.65445 | -82.34175 | 4964 ft | 282 kts | 220° |
| 2026-05-06 18:04 | 27.63982 | -82.35619 | 4976 ft | 281 kts | 220° |
| 2026-05-06 18:04 | 27.62508 | -82.37070 | 4946 ft | 277 kts | 220° |
| 2026-05-06 18:05 | 27.61345 | -82.38757 | 4973 ft | 274 kts | 246° |
| 2026-05-06 18:05 | 27.60888 | -82.40858 | 4765 ft | 288 kts | 265° |
| 2026-05-06 18:05 | 27.60801 | -82.43129 | 4556 ft | 289 kts | 268° |
| 2026-05-06 18:05 | 27.60769 | -82.45391 | 4287 ft | 283 kts | 268° |
| 2026-05-06 18:06 | 27.60740 | -82.47568 | 4030 ft | 278 kts | 268° |
| 2026-05-06 18:06 | 27.60703 | -82.49742 | 3800 ft | 274 kts | 268° |
| 2026-05-06 18:06 | 27.60656 | -82.51854 | 3555 ft | 271 kts | 267° |
| 2026-05-06 18:06 | 27.60607 | -82.53970 | 3293 ft | 268 kts | 266° |
| 2026-05-06 18:07 | 27.60551 | -82.56087 | 3109 ft | 269 kts | 266° |
| 2026-05-06 18:07 | 27.60493 | -82.58190 | 3073 ft | 272 kts | 266° |
| 2026-05-06 18:07 | 27.60434 | -82.60314 | 3078 ft | 266 kts | 266° |
| 2026-05-06 18:07 | 27.60380 | -82.62323 | 3058 ft | 250 kts | 266° |
| 2026-05-06 18:08 | 27.60326 | -82.64241 | 3073 ft | 241 kts | 266° |
| 2026-05-06 18:08 | 27.60262 | -82.66113 | 3070 ft | 239 kts | 262° |
| 2026-05-06 18:08 | 27.59686 | -82.67797 | 3075 ft | 225 kts | 230° |
| 2026-05-06 18:08 | 27.58575 | -82.68984 | 3066 ft | 216 kts | 205° |
| 2026-05-06 18:09 | 27.57162 | -82.69305 | 3077 ft | 209 kts | 173° |
| 2026-05-06 18:09 | 27.55705 | -82.68981 | 2882 ft | 220 kts | 166° |
| 2026-05-06 18:09 | 27.54203 | -82.68553 | 2618 ft | 221 kts | 165° |
| 2026-05-06 18:09 | 27.52749 | -82.68124 | 2316 ft | 213 kts | 165° |
| 2026-05-06 18:10 | 27.51363 | -82.67706 | 2067 ft | 197 kts | 165° |
| 2026-05-06 18:10 | 27.50116 | -82.67235 | 1970 ft | 183 kts | 145° |
| 2026-05-06 18:10 | 27.49264 | -82.66285 | 2059 ft | 177 kts | 137° |
| 2026-05-06 18:10 | 27.48276 | -82.65423 | 1938 ft | 171 kts | 143° |
| 2026-05-06 18:11 | 27.47415 | -82.64548 | 1966 ft | 168 kts | 136° |
| 2026-05-06 18:11 | 27.46554 | -82.63575 | 1774 ft | 176 kts | 135° |
| 2026-05-06 18:11 | 27.45733 | -82.62633 | 1542 ft | 165 kts | 136° |
| 2026-05-06 18:11 | 27.44960 | -82.61739 | 1333 ft | 151 kts | 137° |
| 2026-05-06 18:12 | 27.44268 | -82.60943 | 1155 ft | 137 kts | 137° |
| 2026-05-06 18:12 | 27.43628 | -82.60209 | 984 ft | 131 kts | 137° |
| 2026-05-06 18:12 | 27.42975 | -82.59458 | 836 ft | 138 kts | 137° |
| 2026-05-06 18:12 | 27.42299 | -82.58677 | 661 ft | 138 kts | 139° |
| 2026-05-06 18:13 | 27.41635 | -82.57915 | 449 ft | 132 kts | 140° |
| 2026-05-06 18:13 | 27.40990 | -82.57175 | 303 ft | 137 kts | 140° |
| 2026-05-06 18:13 | 27.40314 | -82.56395 | 111 ft | 141 kts | 139° |
| 2026-05-06 18:13 | 27.39676 | -82.55668 | 30 ft | 107 kts | 133° |
| 2026-05-06 18:14 | 27.39311 | -82.55247 | 28 ft | 44 kts | 134° |
| 2026-05-06 18:14 | 27.39145 | -82.55171 | 28 ft | 19 kts | 211° |
| 2026-05-06 18:14 | 27.39133 | -82.55182 | 28 ft | 0 kts | 223° |
| 2026-05-06 18:15 | 27.39128 | -82.55199 | 29 ft | 7 kts | 257° |
| 2026-05-06 18:16 | 27.39113 | -82.55270 | 29 ft | 10 kts | 244° |
| 2026-05-06 18:16 | 27.39116 | -82.55342 | 28 ft | 10 kts | 294° |
| 2026-05-06 18:16 | 27.39127 | -82.55414 | 31 ft | 9 kts | 258° |
| 2026-05-06 18:16 | 27.39085 | -82.55467 | 31 ft | 9 kts | 217° |
| 2026-05-06 18:17 | 27.39034 | -82.55506 | 31 ft | 9 kts | 194° |
| 2026-05-06 18:17 | 27.38998 | -82.55463 | 31 ft | 9 kts | 102° |
| 2026-05-06 18:17 | 27.38989 | -82.55435 | 32 ft | 0 kts | 111° |